sensor_id;sensor_type;location;lat;lon;timestamp;P1;durP1;ratioP1;P2;durP2;ratioP2
18435;SDS011;9346;52.006;4.720;2023-03-01T00:00:52;11.70;;;7.63;;
18435;SDS011;9346;52.006;4.720;2023-03-01T00:03:19;12.87;;;7.27;;
18435;SDS011;9346;52.006;4.720;2023-03-01T00:05:46;15.57;;;7.80;;
18435;SDS011;9346;52.006;4.720;2023-03-01T00:08:13;13.47;;;7.30;;
18435;SDS011;9346;52.006;4.720;2023-03-01T00:10:42;16.77;;;7.53;;
18435;SDS011;9346;52.006;4.720;2023-03-01T00:13:09;15.83;;;8.60;;
18435;SDS011;9346;52.006;4.720;2023-03-01T00:15:37;13.47;;;8.30;;
18435;SDS011;9346;52.006;4.720;2023-03-01T00:18:05;18.80;;;8.03;;
18435;SDS011;9346;52.006;4.720;2023-03-01T00:20:33;14.53;;;7.17;;
18435;SDS011;9346;52.006;4.720;2023-03-01T00:23:00;16.90;;;8.33;;
18435;SDS011;9346;52.006;4.720;2023-03-01T00:25:26;15.07;;;8.30;;
18435;SDS011;9346;52.006;4.720;2023-03-01T00:27:55;11.20;;;7.67;;
18435;SDS011;9346;52.006;4.720;2023-03-01T00:30:22;11.10;;;7.33;;
18435;SDS011;9346;52.006;4.720;2023-03-01T00:32:49;14.77;;;8.37;;
18435;SDS011;9346;52.006;4.720;2023-03-01T00:35:16;10.17;;;6.63;;
18435;SDS011;9346;52.006;4.720;2023-03-01T00:37:43;14.30;;;7.50;;
18435;SDS011;9346;52.006;4.720;2023-03-01T00:40:11;14.60;;;7.63;;
18435;SDS011;9346;52.006;4.720;2023-03-01T00:42:41;14.43;;;8.37;;
18435;SDS011;9346;52.006;4.720;2023-03-01T00:45:10;14.03;;;8.17;;
18435;SDS011;9346;52.006;4.720;2023-03-01T00:47:38;15.90;;;8.60;;
18435;SDS011;9346;52.006;4.720;2023-03-01T00:50:05;15.40;;;8.03;;
18435;SDS011;9346;52.006;4.720;2023-03-01T00:52:33;11.13;;;7.60;;
18435;SDS011;9346;52.006;4.720;2023-03-01T00:54:59;13.03;;;7.00;;
18435;SDS011;9346;52.006;4.720;2023-03-01T00:57:26;16.07;;;8.50;;
18435;SDS011;9346;52.006;4.720;2023-03-01T00:59:53;15.10;;;8.83;;
18435;SDS011;9346;52.006;4.720;2023-03-01T01:02:23;17.77;;;8.90;;
18435;SDS011;9346;52.006;4.720;2023-03-01T01:04:50;20.33;;;8.40;;
18435;SDS011;9346;52.006;4.720;2023-03-01T01:07:18;19.40;;;9.53;;
18435;SDS011;9346;52.006;4.720;2023-03-01T01:09:46;13.87;;;8.70;;
18435;SDS011;9346;52.006;4.720;2023-03-01T01:12:13;18.70;;;8.87;;
18435;SDS011;9346;52.006;4.720;2023-03-01T01:14:40;17.50;;;9.03;;
18435;SDS011;9346;52.006;4.720;2023-03-01T01:17:07;18.57;;;8.90;;
18435;SDS011;9346;52.006;4.720;2023-03-01T01:19:35;19.33;;;9.60;;
18435;SDS011;9346;52.006;4.720;2023-03-01T01:22:02;21.47;;;9.83;;
18435;SDS011;9346;52.006;4.720;2023-03-01T01:24:29;17.23;;;9.43;;
18435;SDS011;9346;52.006;4.720;2023-03-01T01:26:56;19.83;;;9.60;;
18435;SDS011;9346;52.006;4.720;2023-03-01T01:29:23;22.50;;;10.87;;
18435;SDS011;9346;52.006;4.720;2023-03-01T01:31:50;15.20;;;9.07;;
18435;SDS011;9346;52.006;4.720;2023-03-01T01:34:18;15.70;;;9.83;;
18435;SDS011;9346;52.006;4.720;2023-03-01T01:36:49;14.90;;;8.00;;
18435;SDS011;9346;52.006;4.720;2023-03-01T01:39:18;17.40;;;9.33;;
18435;SDS011;9346;52.006;4.720;2023-03-01T01:41:45;18.87;;;9.23;;
18435;SDS011;9346;52.006;4.720;2023-03-01T01:44:17;14.97;;;8.70;;
18435;SDS011;9346;52.006;4.720;2023-03-01T01:46:49;17.77;;;9.97;;
18435;SDS011;9346;52.006;4.720;2023-03-01T01:49:22;18.97;;;10.33;;
18435;SDS011;9346;52.006;4.720;2023-03-01T01:51:59;21.93;;;10.20;;
18435;SDS011;9346;52.006;4.720;2023-03-01T01:54:32;16.07;;;9.13;;
18435;SDS011;9346;52.006;4.720;2023-03-01T01:57:06;17.13;;;10.60;;
18435;SDS011;9346;52.006;4.720;2023-03-01T01:59:35;20.30;;;10.73;;
18435;SDS011;9346;52.006;4.720;2023-03-01T02:02:04;16.80;;;8.87;;
18435;SDS011;9346;52.006;4.720;2023-03-01T02:04:31;20.10;;;10.90;;
18435;SDS011;9346;52.006;4.720;2023-03-01T02:07:01;21.03;;;10.13;;
18435;SDS011;9346;52.006;4.720;2023-03-01T02:09:34;21.27;;;10.47;;
18435;SDS011;9346;52.006;4.720;2023-03-01T02:12:02;19.13;;;10.57;;
18435;SDS011;9346;52.006;4.720;2023-03-01T02:14:30;22.10;;;10.83;;
18435;SDS011;9346;52.006;4.720;2023-03-01T02:16:57;25.70;;;11.80;;
18435;SDS011;9346;52.006;4.720;2023-03-01T02:19:27;21.43;;;9.83;;
18435;SDS011;9346;52.006;4.720;2023-03-01T02:22:08;20.50;;;10.80;;
18435;SDS011;9346;52.006;4.720;2023-03-01T02:24:47;14.83;;;9.73;;
18435;SDS011;9346;52.006;4.720;2023-03-01T02:27:28;17.50;;;9.73;;
18435;SDS011;9346;52.006;4.720;2023-03-01T02:30:03;19.13;;;10.00;;
18435;SDS011;9346;52.006;4.720;2023-03-01T02:32:31;20.83;;;10.07;;
18435;SDS011;9346;52.006;4.720;2023-03-01T02:34:57;18.43;;;9.40;;
18435;SDS011;9346;52.006;4.720;2023-03-01T02:37:24;19.60;;;10.80;;
18435;SDS011;9346;52.006;4.720;2023-03-01T02:39:54;18.80;;;9.20;;
18435;SDS011;9346;52.006;4.720;2023-03-01T02:42:26;17.70;;;10.93;;
18435;SDS011;9346;52.006;4.720;2023-03-01T02:44:57;17.43;;;9.33;;
18435;SDS011;9346;52.006;4.720;2023-03-01T02:47:25;19.27;;;9.43;;
18435;SDS011;9346;52.006;4.720;2023-03-01T02:49:52;18.90;;;9.43;;
18435;SDS011;9346;52.006;4.720;2023-03-01T02:52:32;19.83;;;10.53;;
18435;SDS011;9346;52.006;4.720;2023-03-01T02:55:04;16.03;;;9.83;;
18435;SDS011;9346;52.006;4.720;2023-03-01T02:57:35;19.67;;;9.67;;
18435;SDS011;9346;52.006;4.720;2023-03-01T03:00:07;22.77;;;10.10;;
18435;SDS011;9346;52.006;4.720;2023-03-01T03:02:37;17.57;;;9.33;;
18435;SDS011;9346;52.006;4.720;2023-03-01T03:05:05;16.67;;;10.27;;
18435;SDS011;9346;52.006;4.720;2023-03-01T03:07:35;25.83;;;10.87;;
18435;SDS011;9346;52.006;4.720;2023-03-01T03:10:03;15.40;;;9.70;;
18435;SDS011;9346;52.006;4.720;2023-03-01T03:12:32;20.43;;;11.70;;
18435;SDS011;9346;52.006;4.720;2023-03-01T03:14:58;19.03;;;10.47;;
18435;SDS011;9346;52.006;4.720;2023-03-01T03:17:25;16.87;;;10.03;;
18435;SDS011;9346;52.006;4.720;2023-03-01T03:19:55;23.83;;;11.10;;
18435;SDS011;9346;52.006;4.720;2023-03-01T03:22:22;21.83;;;11.23;;
18435;SDS011;9346;52.006;4.720;2023-03-01T03:24:49;20.17;;;10.10;;
18435;SDS011;9346;52.006;4.720;2023-03-01T03:27:16;16.33;;;9.70;;
18435;SDS011;9346;52.006;4.720;2023-03-01T03:29:43;18.73;;;9.53;;
18435;SDS011;9346;52.006;4.720;2023-03-01T03:32:10;21.57;;;11.60;;
18435;SDS011;9346;52.006;4.720;2023-03-01T03:34:37;16.50;;;10.13;;
18435;SDS011;9346;52.006;4.720;2023-03-01T03:37:05;19.90;;;11.87;;
18435;SDS011;9346;52.006;4.720;2023-03-01T03:39:52;26.37;;;11.10;;
18435;SDS011;9346;52.006;4.720;2023-03-01T03:42:20;19.17;;;10.47;;
18435;SDS011;9346;52.006;4.720;2023-03-01T03:44:48;18.83;;;10.47;;
18435;SDS011;9346;52.006;4.720;2023-03-01T03:47:15;19.73;;;11.13;;
18435;SDS011;9346;52.006;4.720;2023-03-01T03:49:42;20.63;;;10.57;;
18435;SDS011;9346;52.006;4.720;2023-03-01T03:52:10;17.17;;;10.30;;
18435;SDS011;9346;52.006;4.720;2023-03-01T03:54:38;23.50;;;10.43;;
18435;SDS011;9346;52.006;4.720;2023-03-01T03:57:06;21.60;;;11.83;;
18435;SDS011;9346;52.006;4.720;2023-03-01T03:59:33;18.83;;;10.67;;
18435;SDS011;9346;52.006;4.720;2023-03-01T04:02:00;18.50;;;8.87;;
18435;SDS011;9346;52.006;4.720;2023-03-01T04:04:27;22.53;;;11.03;;
18435;SDS011;9346;52.006;4.720;2023-03-01T04:06:54;16.97;;;9.93;;
18435;SDS011;9346;52.006;4.720;2023-03-01T04:09:22;21.83;;;11.23;;
18435;SDS011;9346;52.006;4.720;2023-03-01T04:11:49;20.17;;;10.90;;
18435;SDS011;9346;52.006;4.720;2023-03-01T04:14:16;25.73;;;12.10;;
18435;SDS011;9346;52.006;4.720;2023-03-01T04:16:43;23.77;;;10.30;;
18435;SDS011;9346;52.006;4.720;2023-03-01T04:19:10;22.73;;;10.87;;
18435;SDS011;9346;52.006;4.720;2023-03-01T04:21:37;19.80;;;10.43;;
18435;SDS011;9346;52.006;4.720;2023-03-01T04:24:04;18.70;;;10.90;;
18435;SDS011;9346;52.006;4.720;2023-03-01T04:26:36;20.23;;;11.33;;
18435;SDS011;9346;52.006;4.720;2023-03-01T04:29:03;18.87;;;10.40;;
18435;SDS011;9346;52.006;4.720;2023-03-01T04:31:30;21.23;;;11.13;;
18435;SDS011;9346;52.006;4.720;2023-03-01T04:33:57;22.20;;;11.50;;
18435;SDS011;9346;52.006;4.720;2023-03-01T04:36:26;22.97;;;12.00;;
18435;SDS011;9346;52.006;4.720;2023-03-01T04:38:54;22.53;;;10.37;;
18435;SDS011;9346;52.006;4.720;2023-03-01T04:41:23;26.60;;;11.40;;
18435;SDS011;9346;52.006;4.720;2023-03-01T04:43:53;23.90;;;11.13;;
18435;SDS011;9346;52.006;4.720;2023-03-01T04:46:20;18.73;;;11.47;;
18435;SDS011;9346;52.006;4.720;2023-03-01T04:48:47;20.23;;;8.90;;
18435;SDS011;9346;52.006;4.720;2023-03-01T04:51:15;19.43;;;10.43;;
18435;SDS011;9346;52.006;4.720;2023-03-01T04:53:43;19.77;;;10.83;;
18435;SDS011;9346;52.006;4.720;2023-03-01T04:56:10;22.20;;;10.77;;
18435;SDS011;9346;52.006;4.720;2023-03-01T04:58:38;21.77;;;11.13;;
18435;SDS011;9346;52.006;4.720;2023-03-01T05:01:12;21.07;;;10.87;;
18435;SDS011;9346;52.006;4.720;2023-03-01T05:03:42;19.00;;;10.53;;
18435;SDS011;9346;52.006;4.720;2023-03-01T05:06:10;22.70;;;11.17;;
18435;SDS011;9346;52.006;4.720;2023-03-01T05:08:37;28.13;;;12.67;;
18435;SDS011;9346;52.006;4.720;2023-03-01T05:11:05;25.00;;;11.33;;
18435;SDS011;9346;52.006;4.720;2023-03-01T05:13:34;19.10;;;9.97;;
18435;SDS011;9346;52.006;4.720;2023-03-01T05:16:02;20.87;;;10.27;;
18435;SDS011;9346;52.006;4.720;2023-03-01T05:18:31;14.17;;;9.07;;
18435;SDS011;9346;52.006;4.720;2023-03-01T05:21:01;18.03;;;11.17;;
18435;SDS011;9346;52.006;4.720;2023-03-01T05:23:30;19.93;;;11.10;;
18435;SDS011;9346;52.006;4.720;2023-03-01T05:25:57;21.37;;;10.47;;
18435;SDS011;9346;52.006;4.720;2023-03-01T05:28:25;18.93;;;10.80;;
18435;SDS011;9346;52.006;4.720;2023-03-01T05:30:53;22.33;;;10.37;;
18435;SDS011;9346;52.006;4.720;2023-03-01T05:33:20;21.83;;;11.33;;
18435;SDS011;9346;52.006;4.720;2023-03-01T05:35:49;15.67;;;9.90;;
18435;SDS011;9346;52.006;4.720;2023-03-01T05:38:18;17.57;;;9.63;;
18435;SDS011;9346;52.006;4.720;2023-03-01T05:40:47;23.10;;;11.23;;
18435;SDS011;9346;52.006;4.720;2023-03-01T05:43:15;17.97;;;9.90;;
18435;SDS011;9346;52.006;4.720;2023-03-01T05:45:43;20.53;;;11.17;;
18435;SDS011;9346;52.006;4.720;2023-03-01T05:48:10;16.17;;;9.10;;
18435;SDS011;9346;52.006;4.720;2023-03-01T05:50:39;19.63;;;10.00;;
18435;SDS011;9346;52.006;4.720;2023-03-01T05:53:10;19.13;;;9.37;;
18435;SDS011;9346;52.006;4.720;2023-03-01T05:55:39;17.47;;;8.90;;
18435;SDS011;9346;52.006;4.720;2023-03-01T05:58:11;19.10;;;10.60;;
18435;SDS011;9346;52.006;4.720;2023-03-01T06:00:40;21.77;;;10.57;;
18435;SDS011;9346;52.006;4.720;2023-03-01T06:03:09;19.97;;;9.03;;
18435;SDS011;9346;52.006;4.720;2023-03-01T06:05:37;19.07;;;9.07;;
18435;SDS011;9346;52.006;4.720;2023-03-01T06:08:04;17.83;;;9.13;;
18435;SDS011;9346;52.006;4.720;2023-03-01T06:10:33;20.67;;;9.70;;
18435;SDS011;9346;52.006;4.720;2023-03-01T06:13:00;19.93;;;10.30;;
18435;SDS011;9346;52.006;4.720;2023-03-01T06:15:27;17.70;;;9.53;;
18435;SDS011;9346;52.006;4.720;2023-03-01T06:17:54;20.93;;;9.60;;
18435;SDS011;9346;52.006;4.720;2023-03-01T06:20:23;16.10;;;9.47;;
18435;SDS011;9346;52.006;4.720;2023-03-01T06:22:51;21.00;;;10.70;;
18435;SDS011;9346;52.006;4.720;2023-03-01T06:25:20;17.93;;;9.50;;
18435;SDS011;9346;52.006;4.720;2023-03-01T06:27:51;18.40;;;9.93;;
18435;SDS011;9346;52.006;4.720;2023-03-01T06:30:19;15.00;;;8.73;;
18435;SDS011;9346;52.006;4.720;2023-03-01T06:32:49;21.13;;;11.40;;
18435;SDS011;9346;52.006;4.720;2023-03-01T06:35:16;21.83;;;10.03;;
18435;SDS011;9346;52.006;4.720;2023-03-01T06:37:46;19.97;;;10.53;;
18435;SDS011;9346;52.006;4.720;2023-03-01T06:40:14;24.63;;;10.17;;
18435;SDS011;9346;52.006;4.720;2023-03-01T06:42:42;20.73;;;10.40;;
18435;SDS011;9346;52.006;4.720;2023-03-01T06:45:15;25.17;;;11.67;;
18435;SDS011;9346;52.006;4.720;2023-03-01T06:47:43;16.67;;;10.33;;
18435;SDS011;9346;52.006;4.720;2023-03-01T06:50:10;20.87;;;10.37;;
18435;SDS011;9346;52.006;4.720;2023-03-01T06:52:38;18.90;;;9.83;;
18435;SDS011;9346;52.006;4.720;2023-03-01T06:55:05;21.33;;;11.40;;
18435;SDS011;9346;52.006;4.720;2023-03-01T06:57:33;19.13;;;11.40;;
18435;SDS011;9346;52.006;4.720;2023-03-01T07:00:00;18.37;;;9.33;;
18435;SDS011;9346;52.006;4.720;2023-03-01T07:02:29;23.20;;;11.10;;
18435;SDS011;9346;52.006;4.720;2023-03-01T07:04:56;15.03;;;8.67;;
18435;SDS011;9346;52.006;4.720;2023-03-01T07:07:23;18.93;;;11.60;;
18435;SDS011;9346;52.006;4.720;2023-03-01T07:09:49;16.07;;;9.97;;
18435;SDS011;9346;52.006;4.720;2023-03-01T07:12:16;21.53;;;10.43;;
18435;SDS011;9346;52.006;4.720;2023-03-01T07:14:43;16.60;;;9.07;;
18435;SDS011;9346;52.006;4.720;2023-03-01T07:17:10;20.33;;;10.87;;
18435;SDS011;9346;52.006;4.720;2023-03-01T07:19:39;21.23;;;11.20;;
18435;SDS011;9346;52.006;4.720;2023-03-01T07:22:05;18.97;;;8.93;;
18435;SDS011;9346;52.006;4.720;2023-03-01T07:24:34;16.10;;;8.60;;
18435;SDS011;9346;52.006;4.720;2023-03-01T07:27:02;18.07;;;9.63;;
18435;SDS011;9346;52.006;4.720;2023-03-01T07:29:29;14.23;;;8.67;;
18435;SDS011;9346;52.006;4.720;2023-03-01T07:31:56;15.77;;;8.10;;
18435;SDS011;9346;52.006;4.720;2023-03-01T07:34:23;21.90;;;10.23;;
18435;SDS011;9346;52.006;4.720;2023-03-01T07:36:52;13.93;;;9.03;;
18435;SDS011;9346;52.006;4.720;2023-03-01T07:39:19;18.47;;;8.03;;
18435;SDS011;9346;52.006;4.720;2023-03-01T07:41:47;16.50;;;9.53;;
18435;SDS011;9346;52.006;4.720;2023-03-01T07:44:14;19.40;;;10.57;;
18435;SDS011;9346;52.006;4.720;2023-03-01T07:46:42;19.27;;;9.80;;
18435;SDS011;9346;52.006;4.720;2023-03-01T07:49:09;18.90;;;8.93;;
18435;SDS011;9346;52.006;4.720;2023-03-01T07:51:36;22.83;;;10.57;;
18435;SDS011;9346;52.006;4.720;2023-03-01T07:54:05;17.23;;;8.60;;
18435;SDS011;9346;52.006;4.720;2023-03-01T07:56:32;16.53;;;9.13;;
18435;SDS011;9346;52.006;4.720;2023-03-01T07:58:59;20.27;;;8.67;;
18435;SDS011;9346;52.006;4.720;2023-03-01T08:01:26;11.50;;;8.13;;
18435;SDS011;9346;52.006;4.720;2023-03-01T08:03:53;18.83;;;8.27;;
18435;SDS011;9346;52.006;4.720;2023-03-01T08:06:20;14.20;;;7.27;;
18435;SDS011;9346;52.006;4.720;2023-03-01T08:08:47;17.53;;;8.30;;
18435;SDS011;9346;52.006;4.720;2023-03-01T08:11:16;13.30;;;8.13;;
18435;SDS011;9346;52.006;4.720;2023-03-01T08:13:43;12.60;;;6.77;;
18435;SDS011;9346;52.006;4.720;2023-03-01T08:16:10;12.63;;;6.70;;
18435;SDS011;9346;52.006;4.720;2023-03-01T08:18:39;16.13;;;7.03;;
18435;SDS011;9346;52.006;4.720;2023-03-01T08:21:07;12.47;;;6.47;;
18435;SDS011;9346;52.006;4.720;2023-03-01T08:23:35;9.77;;;6.33;;
18435;SDS011;9346;52.006;4.720;2023-03-01T08:26:03;20.37;;;7.47;;
18435;SDS011;9346;52.006;4.720;2023-03-01T08:28:33;12.73;;;7.53;;
18435;SDS011;9346;52.006;4.720;2023-03-01T08:31:00;10.93;;;6.80;;
18435;SDS011;9346;52.006;4.720;2023-03-01T08:33:27;11.23;;;5.93;;
18435;SDS011;9346;52.006;4.720;2023-03-01T08:36:02;12.13;;;6.57;;
18435;SDS011;9346;52.006;4.720;2023-03-01T08:38:31;9.60;;;6.00;;
18435;SDS011;9346;52.006;4.720;2023-03-01T08:40:59;11.37;;;6.33;;
18435;SDS011;9346;52.006;4.720;2023-03-01T08:43:27;8.53;;;5.57;;
18435;SDS011;9346;52.006;4.720;2023-03-01T08:45:55;11.33;;;6.63;;
18435;SDS011;9346;52.006;4.720;2023-03-01T08:48:23;9.43;;;6.40;;
18435;SDS011;9346;52.006;4.720;2023-03-01T08:50:50;9.57;;;6.17;;
18435;SDS011;9346;52.006;4.720;2023-03-01T08:53:17;11.77;;;5.93;;
18435;SDS011;9346;52.006;4.720;2023-03-01T08:55:44;8.40;;;5.50;;
18435;SDS011;9346;52.006;4.720;2023-03-01T08:58:11;9.90;;;5.20;;
18435;SDS011;9346;52.006;4.720;2023-03-01T09:00:38;11.90;;;6.87;;
18435;SDS011;9346;52.006;4.720;2023-03-01T09:03:08;9.97;;;5.87;;
18435;SDS011;9346;52.006;4.720;2023-03-01T09:05:35;10.13;;;6.17;;
18435;SDS011;9346;52.006;4.720;2023-03-01T09:08:02;12.30;;;5.60;;
18435;SDS011;9346;52.006;4.720;2023-03-01T09:10:29;11.90;;;5.73;;
18435;SDS011;9346;52.006;4.720;2023-03-01T09:12:56;10.83;;;5.50;;
18435;SDS011;9346;52.006;4.720;2023-03-01T09:15:22;9.57;;;5.70;;
18435;SDS011;9346;52.006;4.720;2023-03-01T09:17:49;11.83;;;5.33;;
18435;SDS011;9346;52.006;4.720;2023-03-01T09:20:19;11.10;;;6.43;;
18435;SDS011;9346;52.006;4.720;2023-03-01T09:22:46;19.33;;;5.77;;
18435;SDS011;9346;52.006;4.720;2023-03-01T09:25:13;7.53;;;4.93;;
18435;SDS011;9346;52.006;4.720;2023-03-01T09:27:40;14.03;;;6.17;;
18435;SDS011;9346;52.006;4.720;2023-03-01T09:30:07;11.33;;;5.73;;
18435;SDS011;9346;52.006;4.720;2023-03-01T09:32:34;11.60;;;6.20;;
18435;SDS011;9346;52.006;4.720;2023-03-01T09:35:02;10.90;;;5.50;;
18435;SDS011;9346;52.006;4.720;2023-03-01T09:37:44;11.50;;;6.00;;
18435;SDS011;9346;52.006;4.720;2023-03-01T09:40:13;10.50;;;5.30;;
18435;SDS011;9346;52.006;4.720;2023-03-01T09:42:53;9.83;;;5.03;;
18435;SDS011;9346;52.006;4.720;2023-03-01T09:45:29;12.70;;;5.53;;
18435;SDS011;9346;52.006;4.720;2023-03-01T09:48:00;10.37;;;5.00;;
18435;SDS011;9346;52.006;4.720;2023-03-01T09:50:32;10.70;;;4.80;;
18435;SDS011;9346;52.006;4.720;2023-03-01T09:53:03;16.07;;;5.90;;
18435;SDS011;9346;52.006;4.720;2023-03-01T09:55:34;7.83;;;4.80;;
18435;SDS011;9346;52.006;4.720;2023-03-01T09:58:08;8.83;;;4.50;;
18435;SDS011;9346;52.006;4.720;2023-03-01T10:00:56;7.83;;;4.77;;
18435;SDS011;9346;52.006;4.720;2023-03-01T10:03:31;8.07;;;4.73;;
18435;SDS011;9346;52.006;4.720;2023-03-01T10:06:04;9.00;;;4.33;;
18435;SDS011;9346;52.006;4.720;2023-03-01T10:08:41;5.43;;;4.00;;
18435;SDS011;9346;52.006;4.720;2023-03-01T10:11:19;6.07;;;4.50;;
18435;SDS011;9346;52.006;4.720;2023-03-01T10:13:49;7.00;;;3.90;;
18435;SDS011;9346;52.006;4.720;2023-03-01T10:16:24;8.77;;;4.40;;
18435;SDS011;9346;52.006;4.720;2023-03-01T10:18:56;8.03;;;4.53;;
18435;SDS011;9346;52.006;4.720;2023-03-01T10:21:27;8.60;;;4.63;;
18435;SDS011;9346;52.006;4.720;2023-03-01T10:23:58;14.33;;;5.17;;
18435;SDS011;9346;52.006;4.720;2023-03-01T10:26:39;14.53;;;5.00;;
18435;SDS011;9346;52.006;4.720;2023-03-01T10:29:13;7.30;;;4.00;;
18435;SDS011;9346;52.006;4.720;2023-03-01T10:31:41;8.87;;;4.73;;
18435;SDS011;9346;52.006;4.720;2023-03-01T10:34:11;9.97;;;5.17;;
18435;SDS011;9346;52.006;4.720;2023-03-01T10:36:41;9.90;;;5.80;;
18435;SDS011;9346;52.006;4.720;2023-03-01T10:39:13;12.63;;;5.23;;
18435;SDS011;9346;52.006;4.720;2023-03-01T10:41:54;5.07;;;4.07;;
18435;SDS011;9346;52.006;4.720;2023-03-01T10:44:36;8.03;;;4.53;;
18435;SDS011;9346;52.006;4.720;2023-03-01T10:47:13;9.07;;;4.97;;
18435;SDS011;9346;52.006;4.720;2023-03-01T10:52:43;11.47;;;4.57;;
18435;SDS011;9346;52.006;4.720;2023-03-01T10:55:28;7.27;;;4.10;;
18435;SDS011;9346;52.006;4.720;2023-03-01T10:58:06;6.60;;;3.90;;
18435;SDS011;9346;52.006;4.720;2023-03-01T11:00:47;6.77;;;4.10;;
18435;SDS011;9346;52.006;4.720;2023-03-01T11:03:19;4.20;;;3.07;;
18435;SDS011;9346;52.006;4.720;2023-03-01T11:05:56;9.13;;;4.07;;
18435;SDS011;9346;52.006;4.720;2023-03-01T11:08:32;6.40;;;3.63;;
18435;SDS011;9346;52.006;4.720;2023-03-01T11:11:14;7.97;;;4.50;;
18435;SDS011;9346;52.006;4.720;2023-03-01T11:13:47;10.40;;;4.37;;
18435;SDS011;9346;52.006;4.720;2023-03-01T11:16:22;7.33;;;4.40;;
18435;SDS011;9346;52.006;4.720;2023-03-01T11:18:58;9.07;;;4.83;;
18435;SDS011;9346;52.006;4.720;2023-03-01T11:21:28;6.20;;;3.63;;
18435;SDS011;9346;52.006;4.720;2023-03-01T11:24:01;4.70;;;3.43;;
18435;SDS011;9346;52.006;4.720;2023-03-01T11:26:34;7.23;;;3.67;;
18435;SDS011;9346;52.006;4.720;2023-03-01T11:29:06;6.67;;;3.30;;
18435;SDS011;9346;52.006;4.720;2023-03-01T11:31:43;4.90;;;3.50;;
18435;SDS011;9346;52.006;4.720;2023-03-01T11:34:13;6.63;;;4.10;;
18435;SDS011;9346;52.006;4.720;2023-03-01T11:36:46;14.73;;;4.97;;
18435;SDS011;9346;52.006;4.720;2023-03-01T11:39:22;7.93;;;4.13;;
18435;SDS011;9346;52.006;4.720;2023-03-01T11:42:02;7.80;;;3.73;;
18435;SDS011;9346;52.006;4.720;2023-03-01T11:44:38;3.57;;;2.73;;
18435;SDS011;9346;52.006;4.720;2023-03-01T11:47:14;8.07;;;3.63;;
18435;SDS011;9346;52.006;4.720;2023-03-01T11:50:06;4.93;;;3.00;;
18435;SDS011;9346;52.006;4.720;2023-03-01T11:52:43;4.17;;;3.13;;
18435;SDS011;9346;52.006;4.720;2023-03-01T11:55:24;8.20;;;3.80;;
18435;SDS011;9346;52.006;4.720;2023-03-01T11:58:15;5.03;;;3.20;;
18435;SDS011;9346;52.006;4.720;2023-03-01T12:00:58;5.93;;;4.10;;
18435;SDS011;9346;52.006;4.720;2023-03-01T12:03:39;4.53;;;3.17;;
18435;SDS011;9346;52.006;4.720;2023-03-01T12:06:26;5.27;;;3.83;;
18435;SDS011;9346;52.006;4.720;2023-03-01T12:09:06;6.40;;;3.40;;
18435;SDS011;9346;52.006;4.720;2023-03-01T12:11:47;5.90;;;3.87;;
18435;SDS011;9346;52.006;4.720;2023-03-01T12:14:42;5.30;;;3.17;;
18435;SDS011;9346;52.006;4.720;2023-03-01T12:17:28;5.80;;;3.87;;
18435;SDS011;9346;52.006;4.720;2023-03-01T12:22:57;6.80;;;4.00;;
18435;SDS011;9346;52.006;4.720;2023-03-01T12:25:34;6.13;;;3.43;;
18435;SDS011;9346;52.006;4.720;2023-03-01T12:28:13;8.97;;;3.33;;
18435;SDS011;9346;52.006;4.720;2023-03-01T12:31:05;5.73;;;3.93;;
18435;SDS011;9346;52.006;4.720;2023-03-01T12:33:45;6.00;;;3.70;;
18435;SDS011;9346;52.006;4.720;2023-03-01T12:36:24;6.30;;;3.53;;
18435;SDS011;9346;52.006;4.720;2023-03-01T12:39:12;11.50;;;4.07;;
18435;SDS011;9346;52.006;4.720;2023-03-01T12:41:52;6.80;;;3.77;;
18435;SDS011;9346;52.006;4.720;2023-03-01T12:44:30;7.97;;;3.23;;
18435;SDS011;9346;52.006;4.720;2023-03-01T12:47:30;5.93;;;3.23;;
18435;SDS011;9346;52.006;4.720;2023-03-01T12:50:11;7.77;;;3.90;;
18435;SDS011;9346;52.006;4.720;2023-03-01T12:52:44;6.23;;;3.70;;
18435;SDS011;9346;52.006;4.720;2023-03-01T12:55:18;6.27;;;3.73;;
18435;SDS011;9346;52.006;4.720;2023-03-01T12:57:57;5.67;;;3.47;;
18435;SDS011;9346;52.006;4.720;2023-03-01T13:00:31;6.27;;;3.70;;
18435;SDS011;9346;52.006;4.720;2023-03-01T13:03:05;7.10;;;3.53;;
18435;SDS011;9346;52.006;4.720;2023-03-01T13:05:47;4.30;;;3.00;;
18435;SDS011;9346;52.006;4.720;2023-03-01T13:08:25;7.27;;;3.27;;
18435;SDS011;9346;52.006;4.720;2023-03-01T13:10:58;5.37;;;3.47;;
18435;SDS011;9346;52.006;4.720;2023-03-01T13:13:28;5.80;;;3.50;;
18435;SDS011;9346;52.006;4.720;2023-03-01T13:15:55;6.77;;;3.93;;
18435;SDS011;9346;52.006;4.720;2023-03-01T13:18:32;4.47;;;3.17;;
18435;SDS011;9346;52.006;4.720;2023-03-01T13:21:00;8.13;;;4.07;;
18435;SDS011;9346;52.006;4.720;2023-03-01T13:23:31;6.20;;;4.03;;
18435;SDS011;9346;52.006;4.720;2023-03-01T13:26:09;5.50;;;3.83;;
18435;SDS011;9346;52.006;4.720;2023-03-01T13:28:46;4.20;;;3.13;;
18435;SDS011;9346;52.006;4.720;2023-03-01T13:34:47;6.30;;;3.83;;
18435;SDS011;9346;52.006;4.720;2023-03-01T13:37:29;4.53;;;3.03;;
18435;SDS011;9346;52.006;4.720;2023-03-01T13:39:59;8.10;;;3.67;;
18435;SDS011;9346;52.006;4.720;2023-03-01T13:42:31;4.57;;;2.93;;
18435;SDS011;9346;52.006;4.720;2023-03-01T13:45:16;4.43;;;3.30;;
18435;SDS011;9346;52.006;4.720;2023-03-01T13:47:50;9.27;;;3.67;;
18435;SDS011;9346;52.006;4.720;2023-03-01T13:50:25;6.37;;;3.57;;
18435;SDS011;9346;52.006;4.720;2023-03-01T13:52:55;6.53;;;3.17;;
18435;SDS011;9346;52.006;4.720;2023-03-01T13:55:26;6.77;;;3.83;;
18435;SDS011;9346;52.006;4.720;2023-03-01T13:57:59;5.13;;;3.67;;
18435;SDS011;9346;52.006;4.720;2023-03-01T14:00:32;5.60;;;3.47;;
18435;SDS011;9346;52.006;4.720;2023-03-01T14:03:05;7.13;;;3.47;;
18435;SDS011;9346;52.006;4.720;2023-03-01T14:05:37;4.40;;;3.20;;
18435;SDS011;9346;52.006;4.720;2023-03-01T14:08:18;5.27;;;3.70;;
18435;SDS011;9346;52.006;4.720;2023-03-01T14:10:49;6.27;;;3.83;;
18435;SDS011;9346;52.006;4.720;2023-03-01T14:13:29;5.73;;;3.57;;
18435;SDS011;9346;52.006;4.720;2023-03-01T14:16:10;5.60;;;3.63;;
18435;SDS011;9346;52.006;4.720;2023-03-01T14:18:50;6.50;;;3.27;;
18435;SDS011;9346;52.006;4.720;2023-03-01T14:21:31;5.67;;;3.47;;
18435;SDS011;9346;52.006;4.720;2023-03-01T14:23:58;3.67;;;2.80;;
18435;SDS011;9346;52.006;4.720;2023-03-01T14:26:25;5.50;;;4.00;;
18435;SDS011;9346;52.006;4.720;2023-03-01T14:28:52;5.07;;;3.03;;
18435;SDS011;9346;52.006;4.720;2023-03-01T14:31:31;10.73;;;3.97;;
18435;SDS011;9346;52.006;4.720;2023-03-01T14:34:01;3.57;;;2.70;;
18435;SDS011;9346;52.006;4.720;2023-03-01T14:36:30;6.13;;;3.47;;
18435;SDS011;9346;52.006;4.720;2023-03-01T14:38:58;5.50;;;2.90;;
18435;SDS011;9346;52.006;4.720;2023-03-01T14:41:30;4.67;;;3.23;;
18435;SDS011;9346;52.006;4.720;2023-03-01T14:44:01;5.07;;;3.07;;
18435;SDS011;9346;52.006;4.720;2023-03-01T14:46:31;5.77;;;3.60;;
18435;SDS011;9346;52.006;4.720;2023-03-01T14:49:01;5.13;;;3.47;;
18435;SDS011;9346;52.006;4.720;2023-03-01T14:51:32;5.37;;;2.90;;
18435;SDS011;9346;52.006;4.720;2023-03-01T14:54:03;6.30;;;3.20;;
18435;SDS011;9346;52.006;4.720;2023-03-01T14:56:43;4.37;;;2.80;;
18435;SDS011;9346;52.006;4.720;2023-03-01T14:59:11;6.10;;;3.00;;
18435;SDS011;9346;52.006;4.720;2023-03-01T15:01:38;6.07;;;3.40;;
18435;SDS011;9346;52.006;4.720;2023-03-01T15:04:06;6.80;;;3.53;;
18435;SDS011;9346;52.006;4.720;2023-03-01T15:06:40;5.00;;;3.57;;
18435;SDS011;9346;52.006;4.720;2023-03-01T15:09:11;6.77;;;3.53;;
18435;SDS011;9346;52.006;4.720;2023-03-01T15:11:40;6.27;;;3.30;;
18435;SDS011;9346;52.006;4.720;2023-03-01T15:16:55;5.10;;;3.43;;
18435;SDS011;9346;52.006;4.720;2023-03-01T15:19:24;6.40;;;3.53;;
18435;SDS011;9346;52.006;4.720;2023-03-01T15:21:57;5.70;;;2.83;;